SKW5498 KDEN-KBIL
Flight info
| Callsign | SKW5498 |
|---|---|
| Flight time | 1h 4m |
| Altitude | 36000 |
| Route | XXWNG1 XXWNG BGHRN BGHRN3 |
| Aircraft | CRJ7/M-SDFGIRWY/S |
Departure
| Time | 2026-05-03 22:11 |
|---|---|
| Airport | Denver International Airport (KDEN) |
Arrival
| Time | 2026-05-03 23:15 |
|---|---|
| Airport | Billings Logan International Airport (KBIL) |
| Time | Latitude | Longitude | Altitude | Speed | Heading |
|---|---|---|---|---|---|
| 2026-05-03 21:40 | 39.85948 | -104.66656 | 5385 ft | 0 kts | 181° |
| 2026-05-03 21:59 | 39.85964 | -104.66656 | 5381 ft | 4 kts | 181° |
| 2026-05-03 22:00 | 39.85990 | -104.66656 | 5381 ft | 2 kts | 181° |
| 2026-05-03 22:00 | 39.86012 | -104.66655 | 5385 ft | 4 kts | 182° |
| 2026-05-03 22:00 | 39.86019 | -104.66655 | 5385 ft | 0 kts | 180° |
| 2026-05-03 22:05 | 39.86015 | -104.66655 | 5385 ft | 0 kts | 180° |
| 2026-05-03 22:06 | 39.86009 | -104.66659 | 5385 ft | 4 kts | 217° |
| 2026-05-03 22:06 | 39.86013 | -104.66707 | 5385 ft | 7 kts | 293° |
| 2026-05-03 22:06 | 39.86020 | -104.66806 | 5385 ft | 15 kts | 269° |
| 2026-05-03 22:06 | 39.86022 | -104.66943 | 5385 ft | 15 kts | 269° |
| 2026-05-03 22:07 | 39.86023 | -104.67078 | 5385 ft | 15 kts | 270° |
| 2026-05-03 22:07 | 39.86024 | -104.67220 | 5385 ft | 18 kts | 270° |
| 2026-05-03 22:07 | 39.86024 | -104.67395 | 5385 ft | 21 kts | 270° |
| 2026-05-03 22:07 | 39.86027 | -104.67603 | 5385 ft | 25 kts | 271° |
| 2026-05-03 22:08 | 39.86027 | -104.67839 | 5385 ft | 27 kts | 272° |
| 2026-05-03 22:08 | 39.86028 | -104.68082 | 5384 ft | 26 kts | 271° |
| 2026-05-03 22:08 | 39.86030 | -104.68314 | 5374 ft | 28 kts | 269° |
| 2026-05-03 22:08 | 39.86033 | -104.68577 | 5363 ft | 29 kts | 270° |
| 2026-05-03 22:09 | 39.86035 | -104.68830 | 5353 ft | 12 kts | 274° |
| 2026-05-03 22:09 | 39.86034 | -104.68950 | 5350 ft | 17 kts | 270° |
| 2026-05-03 22:09 | 39.86036 | -104.69153 | 5346 ft | 28 kts | 270° |
| 2026-05-03 22:10 | 39.86037 | -104.69613 | 5340 ft | 10 kts | 270° |
| 2026-05-03 22:10 | 39.86088 | -104.69650 | 5334 ft | 18 kts | 1° |
| 2026-05-03 22:10 | 39.86475 | -104.69645 | 5321 ft | 94 kts | 0° |
| 2026-05-03 22:10 | 39.87361 | -104.69641 | 5337 ft | 158 kts | 0° |
| 2026-05-03 22:11 | 39.88527 | -104.69617 | 5720 ft | 175 kts | 356° |
| 2026-05-03 22:11 | 39.89711 | -104.69548 | 6686 ft | 168 kts | 359° |
| 2026-05-03 22:11 | 39.90906 | -104.69448 | 7147 ft | 181 kts | 357° |
| 2026-05-03 22:11 | 39.92317 | -104.69330 | 7202 ft | 219 kts | 358° |
| 2026-05-03 22:12 | 39.93845 | -104.69212 | 7938 ft | 224 kts | 359° |
| 2026-05-03 22:12 | 39.95522 | -104.69094 | 8008 ft | 262 kts | 360° |
| 2026-05-03 22:12 | 39.97405 | -104.68954 | 8501 ft | 280 kts | 0° |
| 2026-05-03 22:12 | 39.99388 | -104.68774 | 9225 ft | 288 kts | 1° |
| 2026-05-03 22:13 | 40.01401 | -104.68594 | 9935 ft | 299 kts | 1° |
| 2026-05-03 22:13 | 40.03555 | -104.68404 | 10311 ft | 319 kts | 1° |
| 2026-05-03 22:13 | 40.05833 | -104.68207 | 10768 ft | 336 kts | 1° |
| 2026-05-03 22:13 | 40.08205 | -104.68005 | 11367 ft | 343 kts | 1° |
| 2026-05-03 22:14 | 40.10595 | -104.67806 | 12180 ft | 346 kts | 1° |
| 2026-05-03 22:14 | 40.13008 | -104.67605 | 12966 ft | 349 kts | 1° |
| 2026-05-03 22:14 | 40.15383 | -104.67412 | 13739 ft | 352 kts | 360° |
| 2026-05-03 22:14 | 40.17775 | -104.67625 | 14431 ft | 352 kts | 348° |
| 2026-05-03 22:15 | 40.20180 | -104.68305 | 15142 ft | 354 kts | 343° |
| 2026-05-03 22:15 | 40.22567 | -104.69082 | 15811 ft | 358 kts | 343° |
| 2026-05-03 22:15 | 40.24995 | -104.69876 | 16432 ft | 362 kts | 344° |
| 2026-05-03 22:15 | 40.27466 | -104.70627 | 17047 ft | 366 kts | 345° |
| 2026-05-03 22:16 | 40.29970 | -104.71347 | 17656 ft | 370 kts | 346° |
| 2026-05-03 22:16 | 40.32472 | -104.72034 | 18242 ft | 374 kts | 346° |
| 2026-05-03 22:16 | 40.35027 | -104.72751 | 18758 ft | 377 kts | 346° |
| 2026-05-03 22:16 | 40.37601 | -104.73476 | 19279 ft | 380 kts | 346° |
| 2026-05-03 22:17 | 40.40196 | -104.74210 | 19804 ft | 382 kts | 345° |
| 2026-05-03 22:17 | 40.42686 | -104.74912 | 20279 ft | 385 kts | 345° |
| 2026-05-03 22:17 | 40.45311 | -104.75652 | 20770 ft | 387 kts | 345° |
| 2026-05-03 22:17 | 40.47949 | -104.76400 | 21246 ft | 389 kts | 345° |
| 2026-05-03 22:18 | 40.50606 | -104.77154 | 21720 ft | 391 kts | 345° |
| 2026-05-03 22:18 | 40.53274 | -104.77911 | 22057 ft | 393 kts | 344° |
| 2026-05-03 22:18 | 40.55958 | -104.78673 | 22515 ft | 395 kts | 344° |
| 2026-05-03 22:18 | 40.58650 | -104.79436 | 22929 ft | 397 kts | 344° |
| 2026-05-03 22:19 | 40.61363 | -104.80205 | 23341 ft | 400 kts | 344° |
| 2026-05-03 22:19 | 40.64099 | -104.80984 | 23646 ft | 404 kts | 344° |
| 2026-05-03 22:19 | 40.66848 | -104.81767 | 23981 ft | 405 kts | 344° |
| 2026-05-03 22:19 | 40.69481 | -104.82518 | 24303 ft | 406 kts | 343° |
| 2026-05-03 22:20 | 40.72251 | -104.83308 | 24638 ft | 408 kts | 343° |
| 2026-05-03 22:20 | 40.75031 | -104.84103 | 24950 ft | 409 kts | 343° |
| 2026-05-03 22:20 | 40.77793 | -104.85009 | 25251 ft | 407 kts | 336° |
| 2026-05-03 22:20 | 40.80404 | -104.86426 | 25570 ft | 405 kts | 331° |
| 2026-05-03 22:21 | 40.82898 | -104.88130 | 25928 ft | 403 kts | 326° |
| 2026-05-03 22:21 | 40.85320 | -104.90002 | 26243 ft | 403 kts | 325° |
| 2026-05-03 22:21 | 40.87737 | -104.91892 | 26541 ft | 404 kts | 325° |
| 2026-05-03 22:21 | 40.90132 | -104.93770 | 26708 ft | 408 kts | 326° |
| 2026-05-03 22:22 | 40.92473 | -104.95548 | 26943 ft | 411 kts | 327° |
| 2026-05-03 22:22 | 40.94964 | -104.97413 | 27219 ft | 412 kts | 327° |
| 2026-05-03 22:22 | 40.97351 | -104.99201 | 27486 ft | 413 kts | 326° |
| 2026-05-03 22:22 | 40.99821 | -105.01057 | 27671 ft | 414 kts | 326° |
| 2026-05-03 22:23 | 41.02327 | -105.02934 | 27957 ft | 414 kts | 326° |
| 2026-05-03 22:23 | 41.04833 | -105.04818 | 28297 ft | 413 kts | 326° |
| 2026-05-03 22:23 | 41.07328 | -105.06694 | 28626 ft | 412 kts | 326° |
| 2026-05-03 22:23 | 41.09819 | -105.08568 | 28956 ft | 411 kts | 326° |
| 2026-05-03 22:24 | 41.12302 | -105.10443 | 29282 ft | 410 kts | 326° |
| 2026-05-03 22:24 | 41.14773 | -105.12303 | 29601 ft | 409 kts | 326° |
| 2026-05-03 22:24 | 41.17244 | -105.14169 | 29920 ft | 407 kts | 326° |
| 2026-05-03 22:24 | 41.19700 | -105.16027 | 30199 ft | 406 kts | 326° |
| 2026-05-03 22:25 | 41.22096 | -105.17839 | 30403 ft | 406 kts | 326° |
| 2026-05-03 22:25 | 41.24504 | -105.19660 | 30639 ft | 405 kts | 326° |
| 2026-05-03 22:25 | 41.26948 | -105.21510 | 30875 ft | 404 kts | 326° |
| 2026-05-03 22:25 | 41.29392 | -105.23361 | 31104 ft | 404 kts | 326° |
| 2026-05-03 22:26 | 41.31830 | -105.25216 | 31321 ft | 403 kts | 326° |
| 2026-05-03 22:26 | 41.34266 | -105.27061 | 31560 ft | 402 kts | 325° |
| 2026-05-03 22:26 | 41.36694 | -105.28909 | 31740 ft | 402 kts | 325° |
| 2026-05-03 22:26 | 41.38974 | -105.30646 | 31887 ft | 403 kts | 326° |
| 2026-05-03 22:27 | 41.41412 | -105.32494 | 32079 ft | 403 kts | 325° |
| 2026-05-03 22:27 | 41.43839 | -105.34347 | 32272 ft | 402 kts | 325° |
| 2026-05-03 22:27 | 41.46266 | -105.36200 | 32462 ft | 402 kts | 326° |
| 2026-05-03 22:27 | 41.48654 | -105.37851 | 32582 ft | 404 kts | 329° |
| 2026-05-03 22:28 | 41.51172 | -105.39399 | 32739 ft | 405 kts | 330° |
| 2026-05-03 22:28 | 41.53751 | -105.40918 | 32924 ft | 404 kts | 330° |
| 2026-05-03 22:28 | 41.56315 | -105.42433 | 33098 ft | 403 kts | 330° |
| 2026-05-03 22:28 | 41.58867 | -105.43975 | 33308 ft | 401 kts | 329° |
| 2026-05-03 22:29 | 41.61396 | -105.45534 | 33487 ft | 400 kts | 329° |
| 2026-05-03 22:29 | 41.63921 | -105.47097 | 33634 ft | 400 kts | 329° |
| 2026-05-03 22:29 | 41.66444 | -105.48657 | 33784 ft | 400 kts | 329° |
| 2026-05-03 22:29 | 41.68965 | -105.50224 | 33913 ft | 399 kts | 329° |
| 2026-05-03 22:30 | 41.71481 | -105.51783 | 34049 ft | 399 kts | 329° |
| 2026-05-03 22:30 | 41.74000 | -105.53347 | 34193 ft | 398 kts | 329° |
| 2026-05-03 22:30 | 41.76415 | -105.54847 | 34310 ft | 399 kts | 329° |
| 2026-05-03 22:30 | 41.78925 | -105.56412 | 34448 ft | 398 kts | 329° |
| 2026-05-03 22:31 | 41.81437 | -105.57977 | 34584 ft | 397 kts | 329° |
| 2026-05-03 22:31 | 41.83944 | -105.59537 | 34702 ft | 397 kts | 329° |
| 2026-05-03 22:31 | 41.86454 | -105.61102 | 34821 ft | 397 kts | 329° |
| 2026-05-03 22:31 | 41.88957 | -105.62663 | 34953 ft | 397 kts | 329° |
| 2026-05-03 22:32 | 41.91377 | -105.64179 | 35082 ft | 396 kts | 329° |
| 2026-05-03 22:32 | 41.96311 | -105.67268 | 35232 ft | 398 kts | 329° |
| 2026-05-03 22:32 | 41.98785 | -105.68819 | 35351 ft | 397 kts | 329° |
| 2026-05-03 22:33 | 42.01189 | -105.70326 | 35479 ft | 397 kts | 329° |
| 2026-05-03 22:33 | 42.03692 | -105.71895 | 35598 ft | 396 kts | 329° |
| 2026-05-03 22:33 | 42.06187 | -105.73463 | 35748 ft | 395 kts | 329° |
| 2026-05-03 22:34 | 42.11175 | -105.76599 | 35866 ft | 397 kts | 329° |
| 2026-05-03 22:34 | 42.16200 | -105.79766 | 35902 ft | 401 kts | 329° |
| 2026-05-03 22:35 | 42.21281 | -105.82975 | 35903 ft | 405 kts | 329° |
| 2026-05-03 22:35 | 42.26412 | -105.86215 | 35910 ft | 409 kts | 329° |
| 2026-05-03 22:36 | 42.31479 | -105.89425 | 35913 ft | 413 kts | 329° |
| 2026-05-03 22:36 | 42.36704 | -105.92744 | 35912 ft | 417 kts | 329° |
| 2026-05-03 22:37 | 42.41978 | -105.96092 | 35902 ft | 420 kts | 330° |
| 2026-05-03 22:37 | 42.47193 | -105.99420 | 35895 ft | 423 kts | 329° |
| 2026-05-03 22:38 | 42.52449 | -106.02772 | 35900 ft | 426 kts | 330° |
| 2026-05-03 22:38 | 42.57718 | -106.06138 | 35875 ft | 428 kts | 330° |
| 2026-05-03 22:39 | 42.63118 | -106.09600 | 35873 ft | 430 kts | 330° |
| 2026-05-03 22:39 | 42.68535 | -106.13075 | 35887 ft | 431 kts | 330° |
| 2026-05-03 22:40 | 42.73976 | -106.16572 | 35873 ft | 433 kts | 330° |
| 2026-05-03 22:40 | 42.79292 | -106.19997 | 35858 ft | 434 kts | 330° |
| 2026-05-03 22:41 | 42.84749 | -106.23522 | 35848 ft | 434 kts | 330° |
| 2026-05-03 22:41 | 42.90164 | -106.27026 | 35944 ft | 434 kts | 330° |
| 2026-05-03 22:42 | 42.95610 | -106.30554 | 35947 ft | 433 kts | 330° |
| 2026-05-03 22:42 | 43.01066 | -106.34094 | 35937 ft | 433 kts | 330° |
| 2026-05-03 22:43 | 43.06206 | -106.37450 | 35928 ft | 433 kts | 330° |
| 2026-05-03 22:43 | 43.11662 | -106.40998 | 35908 ft | 434 kts | 331° |
| 2026-05-03 22:44 | 43.17110 | -106.44557 | 35886 ft | 434 kts | 330° |
| 2026-05-03 22:44 | 43.22559 | -106.48123 | 35877 ft | 434 kts | 331° |
| 2026-05-03 22:45 | 43.28018 | -106.51713 | 35856 ft | 435 kts | 331° |
| 2026-05-03 22:45 | 43.33363 | -106.55216 | 35856 ft | 436 kts | 331° |
| 2026-05-03 22:46 | 43.38843 | -106.58823 | 35857 ft | 436 kts | 331° |
| 2026-05-03 22:46 | 43.44317 | -106.62451 | 35859 ft | 437 kts | 332° |
| 2026-05-03 22:47 | 43.49813 | -106.66071 | 35860 ft | 438 kts | 332° |
| 2026-05-03 22:47 | 43.55204 | -106.69636 | 35869 ft | 438 kts | 332° |
| 2026-05-03 22:48 | 43.60479 | -106.73138 | 35866 ft | 438 kts | 332° |
| 2026-05-03 22:48 | 43.65976 | -106.76796 | 35872 ft | 439 kts | 332° |
| 2026-05-03 22:49 | 43.71478 | -106.80459 | 35883 ft | 439 kts | 332° |
| 2026-05-03 22:49 | 43.76979 | -106.84147 | 35880 ft | 439 kts | 332° |
| 2026-05-03 22:50 | 43.82357 | -106.87738 | 35889 ft | 439 kts | 332° |
| 2026-05-03 22:50 | 43.87861 | -106.91424 | 35893 ft | 439 kts | 332° |
| 2026-05-03 22:51 | 43.93362 | -106.95119 | 35905 ft | 439 kts | 332° |
| 2026-05-03 22:51 | 43.97934 | -106.98201 | 35921 ft | 440 kts | 333° |
| 2026-05-03 22:52 | 44.03443 | -107.01913 | 35934 ft | 440 kts | 332° |
| 2026-05-03 22:52 | 44.08704 | -107.05463 | 35933 ft | 441 kts | 332° |
| 2026-05-03 22:53 | 44.14123 | -107.09133 | 35943 ft | 441 kts | 333° |
| 2026-05-03 22:53 | 44.19637 | -107.12879 | 35950 ft | 441 kts | 332° |
| 2026-05-03 22:54 | 44.25148 | -107.16621 | 35950 ft | 440 kts | 332° |
| 2026-05-03 22:54 | 44.30651 | -107.20380 | 35955 ft | 441 kts | 333° |
| 2026-05-03 22:55 | 44.36040 | -107.24051 | 35959 ft | 441 kts | 333° |
| 2026-05-03 22:55 | 44.41562 | -107.27830 | 35772 ft | 444 kts | 333° |
| 2026-05-03 22:55 | 44.44310 | -107.29713 | 35173 ft | 436 kts | 333° |
| 2026-05-03 22:56 | 44.47008 | -107.31567 | 34590 ft | 429 kts | 333° |
| 2026-05-03 22:56 | 44.49679 | -107.33407 | 34043 ft | 426 kts | 334° |
| 2026-05-03 22:56 | 44.52296 | -107.35204 | 33431 ft | 423 kts | 334° |
| 2026-05-03 22:56 | 44.54930 | -107.37010 | 32810 ft | 420 kts | 334° |
| 2026-05-03 22:57 | 44.57432 | -107.38730 | 32232 ft | 418 kts | 334° |
| 2026-05-03 22:57 | 44.59931 | -107.40458 | 31665 ft | 417 kts | 334° |
| 2026-05-03 22:57 | 44.62427 | -107.42180 | 31108 ft | 415 kts | 334° |
| 2026-05-03 22:57 | 44.65030 | -107.43978 | 30547 ft | 421 kts | 334° |
| 2026-05-03 22:58 | 44.67693 | -107.45817 | 29981 ft | 431 kts | 334° |
| 2026-05-03 22:58 | 44.70412 | -107.47696 | 29321 ft | 441 kts | 334° |
| 2026-05-03 22:58 | 44.73175 | -107.49615 | 28680 ft | 444 kts | 334° |
| 2026-05-03 22:58 | 44.75955 | -107.51543 | 28033 ft | 447 kts | 334° |
| 2026-05-03 22:59 | 44.78752 | -107.53482 | 27412 ft | 449 kts | 334° |
| 2026-05-03 22:59 | 44.81565 | -107.55442 | 26792 ft | 451 kts | 334° |
| 2026-05-03 22:59 | 44.84239 | -107.57304 | 26218 ft | 452 kts | 334° |
| 2026-05-03 22:59 | 44.87068 | -107.59270 | 25626 ft | 454 kts | 334° |
| 2026-05-03 23:00 | 44.89886 | -107.61239 | 25030 ft | 446 kts | 334° |
| 2026-05-03 23:00 | 44.92630 | -107.63152 | 24428 ft | 436 kts | 333° |
| 2026-05-03 23:00 | 44.95326 | -107.65041 | 23857 ft | 431 kts | 334° |
| 2026-05-03 23:00 | 44.97974 | -107.66893 | 23289 ft | 428 kts | 334° |
| 2026-05-03 23:01 | 45.00638 | -107.68752 | 22643 ft | 426 kts | 333° |
| 2026-05-03 23:01 | 45.03316 | -107.70633 | 22018 ft | 424 kts | 333° |
| 2026-05-03 23:01 | 45.05917 | -107.72461 | 21428 ft | 421 kts | 333° |
| 2026-05-03 23:01 | 45.08413 | -107.74213 | 20868 ft | 418 kts | 333° |
| 2026-05-03 23:02 | 45.10797 | -107.75889 | 20308 ft | 407 kts | 333° |
| 2026-05-03 23:02 | 45.13258 | -107.77621 | 19771 ft | 394 kts | 332° |
| 2026-05-03 23:02 | 45.15674 | -107.79323 | 19281 ft | 382 kts | 332° |
| 2026-05-03 23:02 | 45.18020 | -107.80974 | 18800 ft | 372 kts | 332° |
| 2026-05-03 23:03 | 45.20307 | -107.82580 | 18349 ft | 363 kts | 332° |
| 2026-05-03 23:03 | 45.22541 | -107.84157 | 17872 ft | 355 kts | 332° |
| 2026-05-03 23:03 | 45.24653 | -107.85885 | 17358 ft | 347 kts | 323° |
| 2026-05-03 23:03 | 45.26539 | -107.87962 | 16859 ft | 340 kts | 318° |
| 2026-05-03 23:04 | 45.28319 | -107.90139 | 16395 ft | 334 kts | 317° |
| 2026-05-03 23:04 | 45.30062 | -107.92289 | 15954 ft | 329 kts | 317° |
| 2026-05-03 23:04 | 45.31700 | -107.94293 | 15551 ft | 324 kts | 317° |
| 2026-05-03 23:04 | 45.33416 | -107.96334 | 15121 ft | 320 kts | 318° |
| 2026-05-03 23:05 | 45.35123 | -107.98338 | 14681 ft | 317 kts | 319° |
| 2026-05-03 23:05 | 45.36782 | -108.00279 | 14270 ft | 315 kts | 318° |
| 2026-05-03 23:05 | 45.38473 | -108.02260 | 13871 ft | 314 kts | 318° |
| 2026-05-03 23:05 | 45.40153 | -108.04226 | 13454 ft | 312 kts | 318° |
| 2026-05-03 23:06 | 45.41822 | -108.06189 | 13007 ft | 310 kts | 318° |
| 2026-05-03 23:06 | 45.43484 | -108.08137 | 12564 ft | 308 kts | 318° |
| 2026-05-03 23:06 | 45.45129 | -108.10072 | 12120 ft | 306 kts | 318° |
| 2026-05-03 23:06 | 45.46661 | -108.11874 | 11732 ft | 304 kts | 318° |
| 2026-05-03 23:07 | 45.48288 | -108.13784 | 11306 ft | 302 kts | 319° |
| 2026-05-03 23:07 | 45.49897 | -108.15677 | 10908 ft | 298 kts | 319° |
| 2026-05-03 23:07 | 45.51481 | -108.17548 | 10547 ft | 293 kts | 319° |
| 2026-05-03 23:07 | 45.53033 | -108.19371 | 10147 ft | 283 kts | 321° |
| 2026-05-03 23:08 | 45.54775 | -108.20614 | 9762 ft | 281 kts | 338° |
| 2026-05-03 23:08 | 45.56560 | -108.21385 | 9366 ft | 281 kts | 342° |
| 2026-05-03 23:08 | 45.58459 | -108.22046 | 8962 ft | 280 kts | 345° |
| 2026-05-03 23:08 | 45.60356 | -108.22668 | 8549 ft | 279 kts | 345° |
| 2026-05-03 23:09 | 45.61922 | -108.23183 | 8224 ft | 278 kts | 345° |
| 2026-05-03 23:09 | 45.63795 | -108.23819 | 7830 ft | 276 kts | 344° |
| 2026-05-03 23:09 | 45.65651 | -108.24490 | 7443 ft | 274 kts | 344° |
| 2026-05-03 23:09 | 45.67495 | -108.25163 | 7053 ft | 273 kts | 344° |
| 2026-05-03 23:10 | 45.69199 | -108.26169 | 6656 ft | 260 kts | 323° |
| 2026-05-03 23:10 | 45.70579 | -108.27768 | 6329 ft | 251 kts | 317° |
| 2026-05-03 23:10 | 45.71814 | -108.29434 | 6057 ft | 239 kts | 315° |
| 2026-05-03 23:10 | 45.72954 | -108.31031 | 5983 ft | 222 kts | 314° |
| 2026-05-03 23:11 | 45.74023 | -108.32510 | 5927 ft | 205 kts | 316° |
| 2026-05-03 23:11 | 45.75044 | -108.33874 | 5806 ft | 198 kts | 313° |
| 2026-05-03 23:11 | 45.75771 | -108.35456 | 5883 ft | 182 kts | 297° |
| 2026-05-03 23:11 | 45.76262 | -108.37083 | 5590 ft | 177 kts | 292° |
| 2026-05-03 23:12 | 45.76660 | -108.38719 | 5246 ft | 174 kts | 290° |
| 2026-05-03 23:12 | 45.77074 | -108.40312 | 5051 ft | 153 kts | 291° |
| 2026-05-03 23:12 | 45.77395 | -108.41553 | 4899 ft | 117 kts | 292° |
| 2026-05-03 23:12 | 45.77684 | -108.42654 | 4711 ft | 121 kts | 291° |
| 2026-05-03 23:13 | 45.78005 | -108.43843 | 4662 ft | 134 kts | 293° |
| 2026-05-03 23:13 | 45.78357 | -108.45094 | 4508 ft | 134 kts | 293° |
| 2026-05-03 23:13 | 45.78680 | -108.46259 | 4354 ft | 135 kts | 293° |
| 2026-05-03 23:13 | 45.79024 | -108.47538 | 4185 ft | 139 kts | 293° |
| 2026-05-03 23:14 | 45.79379 | -108.48819 | 4010 ft | 137 kts | 295° |
| 2026-05-03 23:14 | 45.79751 | -108.50056 | 3793 ft | 134 kts | 295° |
| 2026-05-03 23:14 | 45.80086 | -108.51249 | 3644 ft | 128 kts | 295° |
| 2026-05-03 23:14 | 45.80423 | -108.52428 | 3553 ft | 116 kts | 291° |
| 2026-05-03 23:15 | 45.80656 | -108.53269 | 3559 ft | 71 kts | 292° |
| 2026-05-03 23:15 | 45.80767 | -108.53683 | 3559 ft | 11 kts | 272° |
| 2026-05-03 23:15 | 45.80706 | -108.53745 | 3558 ft | 13 kts | 201° |
| 2026-05-03 23:15 | 45.80622 | -108.53788 | 3553 ft | 9 kts | 168° |
| 2026-05-03 23:16 | 45.80572 | -108.53654 | 3556 ft | 22 kts | 112° |
| 2026-05-03 23:16 | 45.80503 | -108.53464 | 3556 ft | 11 kts | 159° |
| 2026-05-03 23:16 | 45.80459 | -108.53500 | 3552 ft | 1 kts | 229° |
| 2026-05-03 23:16 | 45.80448 | -108.53517 | 3552 ft | 2 kts | 219° |
| 2026-05-03 23:17 | 45.80446 | -108.53519 | 3553 ft | 0 kts | 219° |